createdAt,value
2019-02-05T00:00:37.579Z,3.52
2019-02-05T00:06:02.739Z,3.54
2019-02-05T00:08:29.099Z,3.59
2019-02-05T00:10:55.697Z,3.56
2019-02-05T00:13:22.056Z,3.63
2019-02-05T00:15:48.423Z,3.61
2019-02-05T00:21:38.723Z,3.55
2019-02-05T00:24:04.995Z,3.65
2019-02-05T00:26:31.167Z,3.56
2019-02-05T00:28:57.489Z,3.63
2019-02-05T00:31:24.234Z,3.58
2019-02-05T00:33:50.834Z,3.59
2019-02-05T00:36:17.022Z,3.61
2019-02-05T00:38:43.349Z,3.68
2019-02-05T00:41:09.862Z,3.60
2019-02-05T00:43:36.208Z,3.62
2019-02-05T00:46:02.534Z,3.57
2019-02-05T00:48:28.705Z,3.55
2019-02-05T00:50:55.393Z,3.67
2019-02-05T00:53:22.304Z,3.56
2019-02-05T00:55:48.473Z,3.63
2019-02-05T00:58:14.719Z,3.59
2019-02-05T01:00:41.386Z,3.59
2019-02-05T01:03:08.034Z,3.46
2019-02-05T01:05:34.281Z,3.42
2019-02-05T01:08:01.272Z,3.58
2019-02-05T01:10:27.745Z,3.48
2019-02-05T01:12:54.957Z,3.29
2019-02-05T01:15:24.082Z,3.19
2019-02-05T01:17:50.991Z,3.30
2019-02-05T01:20:19.120Z,3.13
2019-02-05T01:22:46.112Z,3.15
2019-02-05T01:25:14.508Z,3.11
2019-02-05T01:27:41.005Z,3.02
2019-02-05T01:30:11.362Z,3.08
2019-02-05T01:32:37.980Z,3.03
2019-02-05T01:35:06.432Z,2.98
2019-02-05T01:37:32.865Z,2.84
2019-02-05T01:39:59.126Z,2.76
2019-02-05T01:42:25.410Z,2.81
2019-02-05T01:44:51.663Z,2.64
2019-02-05T01:47:18.436Z,2.55
2019-02-05T01:49:44.850Z,2.57
2019-02-05T01:52:11.233Z,2.58
2019-02-05T01:54:37.484Z,2.61
2019-02-05T02:00:30.781Z,2.44
2019-02-05T02:02:57.642Z,2.43
2019-02-05T02:05:24.086Z,2.38
2019-02-05T02:07:50.431Z,2.39
2019-02-05T02:10:23.279Z,2.39
2019-02-05T02:12:49.790Z,2.42
2019-02-05T02:15:16.134Z,2.47
2019-02-05T02:17:42.569Z,2.51
2019-02-05T02:20:12.327Z,2.43
2019-02-05T02:22:38.684Z,2.47
2019-02-05T02:25:08.074Z,2.47
2019-02-05T02:27:34.535Z,2.42
2019-02-05T02:30:01.035Z,2.53
2019-02-05T02:32:27.410Z,2.50
2019-02-05T02:34:53.869Z,2.52
2019-02-05T02:37:20.155Z,2.51
2019-02-05T02:39:46.512Z,2.51
2019-02-05T02:42:12.867Z,2.54
2019-02-05T02:44:39.135Z,2.50
2019-02-05T02:47:05.472Z,2.50
2019-02-05T02:49:32.022Z,2.54
2019-02-05T02:51:58.499Z,2.58
2019-02-05T02:54:24.807Z,2.55
2019-02-05T02:56:51.454Z,2.56
2019-02-05T02:59:18.878Z,2.58
2019-02-05T03:01:45.219Z,2.58
2019-02-05T03:04:11.949Z,2.51
2019-02-05T03:06:38.513Z,2.57
2019-02-05T03:09:14.850Z,2.56
2019-02-05T03:11:41.272Z,2.57
2019-02-05T03:14:07.775Z,2.55
2019-02-05T03:16:34.748Z,2.59
2019-02-05T03:19:01.159Z,2.62
2019-02-05T03:21:27.451Z,2.64
2019-02-05T03:23:53.851Z,2.45
2019-02-05T03:26:20.774Z,2.52
2019-02-05T03:28:47.376Z,2.61
2019-02-05T03:31:13.731Z,2.59
2019-02-05T03:33:40.021Z,2.76
2019-02-05T03:36:06.597Z,2.80
2019-02-05T03:38:33.133Z,2.82
2019-02-05T03:41:00.903Z,2.71
2019-02-05T03:43:27.143Z,2.71
2019-02-05T03:49:17.896Z,2.67
2019-02-05T03:51:47.966Z,2.70
2019-02-05T03:54:24.038Z,2.85
2019-02-05T03:57:10.734Z,2.90
2019-02-05T04:00:01.169Z,2.82
2019-02-05T04:02:46.817Z,2.74
2019-02-05T04:05:32.624Z,2.73
2019-02-05T04:08:30.480Z,2.70
2019-02-05T04:11:03.869Z,2.72
2019-02-05T04:13:46.904Z,2.66
2019-02-05T04:16:39.238Z,2.69
2019-02-05T04:19:24.713Z,2.71
2019-02-05T04:21:58.012Z,2.71
2019-02-05T04:24:46.442Z,2.71
2019-02-05T04:27:45.174Z,2.75
2019-02-05T04:30:10.354Z,2.62
2019-02-05T04:35:30.182Z,2.65
2019-02-05T04:38:09.218Z,2.71
2019-02-05T04:40:56.356Z,2.64
2019-02-05T04:43:29.907Z,2.60
2019-02-05T04:46:20.816Z,2.61
2019-02-05T04:49:07.908Z,2.72
2019-02-05T04:51:50.610Z,2.66
2019-02-05T04:54:26.604Z,2.60
2019-02-05T04:57:09.449Z,2.51
2019-02-05T05:00:08.320Z,2.52
2019-02-05T05:02:50.500Z,2.59
2019-02-05T05:05:38.796Z,2.64
2019-02-05T05:08:09.088Z,2.56
2019-02-05T05:10:35.414Z,2.58
2019-02-05T05:13:01.749Z,2.66
2019-02-05T05:15:28.398Z,2.74
2019-02-05T05:17:54.982Z,2.65
2019-02-05T05:20:21.434Z,2.70
2019-02-05T05:22:48.240Z,2.64
2019-02-05T05:28:41.690Z,2.69
2019-02-05T05:31:08.253Z,2.71
2019-02-05T05:33:34.872Z,2.80
2019-02-05T05:36:01.219Z,2.76
2019-02-05T05:38:27.426Z,2.85
2019-02-05T05:40:55.054Z,2.83
2019-02-05T05:43:21.572Z,2.83
2019-02-05T05:45:47.971Z,2.85
2019-02-05T05:48:14.437Z,2.83
2019-02-05T05:50:40.867Z,2.95
2019-02-05T05:53:07.373Z,2.90
2019-02-05T05:55:33.781Z,2.99
2019-02-05T05:58:00.265Z,3.02
2019-02-05T06:00:27.087Z,3.14
2019-02-05T06:02:53.558Z,3.03
2019-02-05T06:05:20.200Z,3.12
2019-02-05T06:07:47.438Z,3.20
2019-02-05T06:10:16.605Z,3.24
2019-02-05T06:12:43.070Z,3.28
2019-02-05T06:15:11.349Z,3.26
2019-02-05T06:17:37.795Z,3.17
2019-02-05T06:20:07.972Z,3.18
2019-02-05T06:22:34.461Z,3.21
2019-02-05T06:25:00.719Z,3.29
2019-02-05T06:27:27.335Z,3.23
2019-02-05T06:29:53.826Z,3.26
2019-02-05T06:32:20.196Z,3.29
2019-02-05T06:34:46.993Z,3.24
2019-02-05T06:37:13.404Z,3.30
2019-02-05T06:39:39.657Z,3.30
2019-02-05T06:42:10.678Z,3.27
2019-02-05T06:44:37.264Z,3.21
2019-02-05T06:47:04.167Z,3.25
2019-02-05T06:49:30.485Z,3.27
2019-02-05T06:51:57.432Z,3.33
2019-02-05T06:54:24.307Z,3.33
2019-02-05T06:56:51.545Z,3.26
2019-02-05T06:59:18.165Z,3.38
2019-02-05T07:01:44.816Z,3.39
2019-02-05T07:04:11.523Z,3.33
2019-02-05T07:06:38.136Z,3.59
2019-02-05T07:09:12.438Z,3.42
2019-02-05T07:11:38.941Z,3.56
2019-02-05T07:14:05.523Z,3.65
2019-02-05T07:16:32.126Z,3.49
2019-02-05T07:18:58.561Z,3.43
2019-02-05T07:21:24.924Z,3.44
2019-02-05T07:23:51.195Z,3.44
2019-02-05T07:26:18.002Z,3.59
2019-02-05T07:28:44.913Z,3.45
2019-02-05T07:31:11.652Z,3.52
2019-02-05T07:36:49.807Z,3.57
2019-02-05T07:39:16.661Z,3.61
2019-02-05T07:41:43.254Z,3.55
2019-02-05T07:44:09.836Z,3.48
2019-02-05T07:46:36.460Z,3.47
2019-02-05T07:49:03.994Z,3.49
2019-02-05T07:51:30.535Z,3.44
2019-02-05T07:53:57.124Z,3.29
2019-02-05T07:56:24.470Z,3.34
2019-02-05T07:58:51.664Z,3.30
2019-02-05T08:01:18.430Z,3.32
2019-02-05T08:03:48.086Z,3.35
2019-02-05T08:06:14.821Z,3.27
2019-02-05T08:08:41.598Z,3.44
2019-02-05T08:11:08.374Z,3.45
2019-02-05T08:13:34.742Z,3.55
2019-02-05T08:16:21.627Z,3.46
2019-02-05T08:18:54.389Z,3.47
2019-02-05T08:21:20.668Z,3.50
2019-02-05T08:23:50.267Z,3.46
2019-02-05T08:26:16.851Z,3.46
2019-02-05T08:28:43.536Z,3.36
2019-02-05T08:31:10.158Z,3.33
2019-02-05T08:33:36.584Z,3.46
2019-02-05T08:36:03.650Z,3.59
2019-02-05T08:38:30.046Z,3.59
2019-02-05T08:40:56.313Z,3.63
2019-02-05T08:43:22.592Z,3.62
2019-02-05T08:45:56.295Z,3.69
2019-02-05T08:48:17.560Z,3.76
2019-02-05T08:50:44.148Z,3.75
2019-02-05T08:53:10.807Z,3.89
2019-02-05T08:55:37.377Z,3.93
2019-02-05T08:58:09.891Z,3.88
2019-02-05T09:00:49.807Z,4.00
2019-02-05T09:03:22.051Z,4.00
2019-02-05T09:05:48.775Z,3.99
2019-02-05T09:08:15.441Z,3.93
2019-02-05T09:10:41.835Z,3.87
2019-02-05T09:13:09.019Z,4.03
2019-02-05T09:15:35.962Z,4.14
2019-02-05T09:18:02.718Z,4.20
2019-02-05T09:20:29.113Z,4.23
2019-02-05T09:22:55.544Z,4.12
2019-02-05T09:25:21.999Z,4.13
2019-02-05T09:27:48.744Z,4.12
2019-02-05T09:30:27.881Z,4.24
2019-02-05T09:32:56.626Z,4.30
2019-02-05T09:35:22.960Z,4.27
2019-02-05T09:37:49.468Z,4.31
2019-02-05T09:40:21.838Z,4.21
2019-02-05T09:42:48.212Z,4.20
2019-02-05T09:45:24.991Z,4.45
2019-02-05T09:47:51.856Z,4.47
2019-02-05T09:50:18.657Z,4.37
2019-02-05T09:52:45.509Z,4.50
2019-02-05T09:55:17.384Z,4.39
2019-02-05T09:57:44.158Z,4.43
2019-02-05T10:00:25.697Z,4.51
2019-02-05T10:02:52.439Z,4.44
2019-02-05T10:05:21.856Z,4.42
2019-02-05T10:07:48.468Z,4.28
2019-02-05T10:10:17.586Z,4.20
2019-02-05T10:12:46.914Z,4.43
2019-02-05T10:15:16.574Z,4.42
2019-02-05T10:17:43.058Z,4.34
2019-02-05T10:20:11.648Z,4.49
2019-02-05T10:22:38.634Z,4.68
2019-02-05T10:25:07.859Z,4.47
2019-02-05T10:27:34.339Z,4.64
2019-02-05T10:30:00.806Z,4.54
2019-02-05T10:32:27.590Z,4.68
2019-02-05T10:34:53.980Z,4.69
2019-02-05T10:37:20.500Z,4.77
2019-02-05T10:39:46.802Z,4.86
2019-02-05T10:42:13.708Z,5.12
2019-02-05T10:44:40.531Z,5.17
2019-02-05T10:47:07.426Z,5.03
2019-02-05T10:49:33.657Z,4.82
2019-02-05T10:52:00.102Z,5.05
2019-02-05T10:54:26.589Z,4.98
2019-02-05T10:56:53.196Z,5.12
2019-02-05T10:59:19.664Z,5.33
2019-02-05T11:01:46.093Z,5.17
2019-02-05T11:04:12.775Z,5.24
2019-02-05T11:06:39.131Z,5.40
2019-02-05T11:09:07.989Z,5.34
2019-02-05T11:11:34.490Z,5.41
2019-02-05T11:14:00.864Z,5.52
2019-02-05T11:16:27.192Z,5.55
2019-02-05T11:18:53.656Z,5.75
2019-02-05T11:21:20.244Z,6.02
2019-02-05T11:23:46.893Z,5.95
2019-02-05T11:26:13.777Z,5.89
2019-02-05T11:28:39.961Z,5.94
2019-02-05T11:31:06.665Z,5.91
2019-02-05T11:33:33.216Z,5.83
2019-02-05T11:35:59.486Z,5.90
2019-02-05T11:38:25.782Z,5.69
2019-02-05T11:40:52.494Z,5.61
2019-02-05T11:43:18.831Z,5.50
2019-02-05T11:45:45.437Z,5.51
2019-02-05T11:48:14.101Z,5.60
2019-02-05T11:50:40.616Z,5.28
2019-02-05T11:53:07.040Z,5.35
2019-02-05T11:55:34.143Z,5.50
2019-02-05T11:58:00.749Z,5.50
2019-02-05T12:00:33.151Z,5.48
2019-02-05T12:03:00.270Z,5.56
2019-02-05T12:05:27.122Z,5.41
2019-02-05T12:07:54.193Z,5.51
2019-02-05T12:10:20.525Z,5.56
2019-02-05T12:12:47.002Z,5.40
2019-02-05T12:15:15.440Z,5.26
2019-02-05T12:17:41.997Z,5.49
2019-02-05T12:20:11.663Z,5.64
2019-02-05T12:22:38.535Z,5.66
2019-02-05T12:25:14.583Z,5.67
2019-02-05T12:27:41.178Z,5.69
2019-02-05T12:30:17.038Z,5.75
2019-02-05T12:32:43.456Z,5.93
2019-02-05T12:35:09.834Z,6.17
2019-02-05T12:37:36.271Z,6.38
2019-02-05T12:40:06.185Z,6.33
2019-02-05T12:42:32.534Z,6.38
2019-02-05T12:44:59.357Z,6.67
2019-02-05T12:47:25.656Z,6.49
2019-02-05T12:49:52.046Z,6.74
2019-02-05T12:52:18.520Z,6.41
2019-02-05T12:54:44.747Z,6.59
2019-02-05T12:57:11.178Z,6.55
2019-02-05T12:59:37.502Z,6.52
2019-02-05T13:02:04.299Z,6.31
2019-02-05T13:04:30.833Z,6.36
2019-02-05T13:06:58.717Z,6.40
2019-02-05T13:09:25.008Z,6.53
2019-02-05T13:11:51.433Z,6.44
2019-02-05T13:14:17.646Z,6.60
2019-02-05T13:16:44.440Z,6.59
2019-02-05T13:19:10.911Z,6.58
2019-02-05T13:21:37.339Z,6.60
2019-02-05T13:24:04.347Z,6.40
2019-02-05T13:26:30.739Z,6.63
2019-02-05T13:28:57.021Z,6.52
2019-02-05T13:31:23.383Z,6.12
2019-02-05T13:33:49.750Z,6.39
2019-02-05T13:36:16.126Z,6.39
2019-02-05T13:38:42.462Z,6.34
2019-02-05T13:41:08.671Z,6.20
2019-02-05T13:43:35.210Z,6.44
2019-02-05T13:46:01.797Z,6.66
2019-02-05T13:48:28.063Z,6.55
2019-02-05T13:50:54.372Z,6.45
2019-02-05T13:53:20.744Z,6.55
2019-02-05T13:55:47.041Z,6.45
2019-02-05T13:58:13.967Z,6.45
2019-02-05T14:00:46.576Z,6.63
2019-02-05T14:03:12.908Z,6.64
2019-02-05T14:05:39.329Z,6.63
2019-02-05T14:08:06.277Z,6.84
2019-02-05T14:10:35.021Z,6.78
2019-02-05T14:13:01.501Z,6.98
2019-02-05T14:15:30.720Z,6.59
2019-02-05T14:17:57.239Z,6.44
2019-02-05T14:20:23.966Z,6.67
2019-02-05T14:22:50.283Z,6.51
2019-02-05T14:25:16.949Z,6.31
2019-02-05T14:27:43.488Z,6.24
2019-02-05T14:30:13.799Z,6.22
2019-02-05T14:32:40.196Z,6.22
2019-02-05T14:35:08.521Z,6.15
2019-02-05T14:37:35.236Z,6.09
2019-02-05T14:40:01.815Z,5.99
2019-02-05T14:42:28.357Z,6.13
2019-02-05T14:44:54.663Z,6.06
2019-02-05T14:47:21.127Z,6.00
2019-02-05T14:49:47.493Z,6.15
2019-02-05T14:52:13.824Z,6.02
2019-02-05T14:54:39.974Z,5.93
2019-02-05T14:57:06.576Z,5.85
2019-02-05T14:59:32.816Z,5.83
2019-02-05T15:05:23.575Z,5.89
2019-02-05T15:07:49.806Z,5.99
2019-02-05T15:10:17.981Z,5.81
2019-02-05T15:12:44.306Z,5.79
2019-02-05T15:15:13.617Z,5.84
2019-02-05T15:17:39.845Z,5.92
2019-02-05T15:20:10.470Z,5.91
2019-02-05T15:22:36.932Z,5.82
2019-02-05T15:25:07.359Z,5.92
2019-02-05T15:27:33.795Z,5.93
2019-02-05T15:30:00.336Z,5.83
2019-02-05T15:32:31.338Z,5.86
2019-02-05T15:34:58.116Z,5.78
2019-02-05T15:37:24.410Z,6.08
2019-02-05T15:39:50.558Z,6.19
2019-02-05T15:42:16.790Z,6.05
2019-02-05T15:44:43.095Z,5.94
2019-02-05T15:47:09.535Z,6.09
2019-02-05T15:49:35.870Z,5.92
2019-02-05T15:52:02.382Z,5.81
2019-02-05T15:54:31.039Z,5.96
2019-02-05T15:56:57.346Z,6.19
2019-02-05T15:59:23.651Z,5.99
2019-02-05T16:01:50.237Z,6.08
2019-02-05T16:04:16.650Z,6.01
2019-02-05T16:06:43.229Z,6.01
2019-02-05T16:09:10.115Z,6.28
2019-02-05T16:11:36.829Z,6.00
2019-02-05T16:14:04.034Z,6.01
2019-02-05T16:16:30.457Z,6.02
2019-02-05T16:18:57.064Z,6.02
2019-02-05T16:21:23.558Z,6.12
2019-02-05T16:23:52.930Z,6.13
2019-02-05T16:26:34.167Z,6.04
2019-02-05T16:29:06.861Z,5.99
2019-02-05T16:31:33.386Z,6.11
2019-02-05T16:33:59.746Z,6.19
2019-02-05T16:36:26.064Z,6.08
2019-02-05T16:38:52.242Z,5.97
2019-02-05T16:41:18.542Z,5.99
2019-02-05T16:43:44.818Z,6.00
2019-02-05T16:46:11.238Z,6.15
2019-02-05T16:48:38.233Z,6.06
2019-02-05T16:51:04.686Z,6.06
2019-02-05T16:53:30.960Z,6.00
2019-02-05T16:55:57.436Z,6.05
2019-02-05T16:58:23.923Z,5.87
2019-02-05T17:00:50.257Z,5.87
2019-02-05T17:03:16.522Z,5.94
2019-02-05T17:05:43.246Z,5.83
2019-02-05T17:08:09.798Z,5.72
2019-02-05T17:10:36.065Z,5.70
2019-02-05T17:13:03.406Z,5.68
2019-02-05T17:15:29.674Z,5.76
2019-02-05T17:21:19.937Z,5.89
2019-02-05T17:23:46.522Z,5.72
2019-02-05T17:26:13.014Z,5.82
2019-02-05T17:28:39.337Z,5.72
2019-02-05T17:31:06.470Z,5.75
2019-02-05T17:33:32.775Z,5.92
2019-02-05T17:35:59.589Z,5.92
2019-02-05T17:38:26.362Z,5.97
2019-02-05T17:40:54.670Z,5.95
2019-02-05T17:43:21.425Z,5.82
2019-02-05T17:45:47.909Z,5.86
2019-02-05T17:48:15.371Z,5.90
2019-02-05T17:50:42.354Z,5.89
2019-02-05T17:53:09.203Z,5.79
2019-02-05T17:55:35.819Z,5.60
2019-02-05T17:58:02.742Z,5.43
2019-02-05T18:03:41.481Z,5.56
2019-02-05T18:06:08.040Z,5.46
2019-02-05T18:08:41.031Z,5.32
2019-02-05T18:11:17.885Z,5.35
2019-02-05T18:16:57.783Z,5.41
2019-02-05T18:19:24.703Z,5.41
2019-02-05T18:21:51.507Z,5.38
2019-02-05T18:24:17.937Z,5.49
2019-02-05T18:30:31.597Z,5.46
2019-02-05T18:33:05.527Z,5.45
2019-02-05T18:39:06.852Z,5.59
2019-02-05T18:44:48.238Z,5.46
2019-02-05T18:47:14.786Z,5.59
2019-02-05T18:49:41.434Z,5.60
2019-02-05T18:55:45.720Z,5.61
2019-02-05T19:01:36.675Z,5.43
2019-02-05T19:07:14.641Z,5.70
2019-02-05T19:09:47.241Z,5.80
2019-02-05T19:12:17.318Z,5.75
2019-02-05T19:14:44.546Z,5.79
2019-02-05T19:20:34.694Z,5.59
2019-02-05T19:26:26.571Z,5.68
2019-02-05T19:32:05.067Z,5.70
2019-02-05T19:34:31.894Z,5.72
2019-02-05T19:40:21.289Z,5.57
2019-02-05T19:42:48.177Z,5.52
2019-02-05T19:45:16.921Z,5.54
2019-02-05T19:47:43.352Z,5.74
2019-02-05T19:50:09.777Z,5.67
2019-02-05T19:56:00.629Z,5.33
2019-02-05T20:01:38.968Z,5.43
2019-02-05T20:04:05.910Z,5.50
2019-02-05T20:06:32.209Z,5.53
2019-02-05T20:08:58.797Z,5.51
2019-02-05T20:11:25.535Z,5.56
2019-02-05T20:17:28.194Z,5.62
2019-02-05T20:19:54.949Z,5.62
2019-02-05T20:22:21.778Z,5.53
2019-02-05T20:24:48.274Z,5.55
2019-02-05T20:27:15.124Z,5.51
2019-02-05T20:33:17.086Z,5.62
2019-02-05T20:42:12.156Z,5.59
2019-02-05T20:44:38.850Z,5.37
2019-02-05T20:50:28.573Z,5.43
2019-02-05T20:52:55.225Z,5.35
2019-02-05T20:55:23.191Z,5.50
2019-02-05T20:57:49.584Z,5.57
2019-02-05T21:00:24.866Z,5.43
2019-02-05T21:02:51.206Z,5.33
2019-02-05T21:05:18.716Z,5.20
2019-02-05T21:11:08.879Z,5.25
2019-02-05T21:13:35.095Z,5.18
2019-02-05T21:16:01.850Z,5.09
2019-02-05T21:22:03.715Z,4.76
2019-02-05T21:24:30.009Z,4.72
2019-02-05T21:30:31.148Z,4.72
2019-02-05T21:32:57.359Z,4.71
2019-02-05T21:38:47.133Z,4.39
2019-02-05T21:41:13.512Z,4.50
2019-02-05T21:46:51.601Z,4.75
2019-02-05T21:49:18.256Z,4.47
2019-02-05T21:51:47.252Z,4.43
2019-02-05T21:54:13.684Z,4.43
2019-02-05T21:56:40.052Z,4.44
2019-02-05T21:59:06.659Z,4.36
2019-02-05T22:01:36.132Z,4.27
2019-02-05T22:04:02.870Z,4.18
2019-02-05T22:06:29.284Z,4.22
2019-02-05T22:08:56.062Z,4.33
2019-02-05T22:11:22.377Z,4.27
2019-02-05T22:13:49.135Z,4.27
2019-02-05T22:16:15.442Z,4.29
2019-02-05T22:18:42.570Z,4.37
2019-02-05T22:21:09.454Z,4.31
2019-02-05T22:23:35.856Z,4.16
2019-02-05T22:26:02.319Z,4.22
2019-02-05T22:28:28.902Z,4.26
2019-02-05T22:30:55.625Z,4.13
2019-02-05T22:33:22.095Z,4.23
2019-02-05T22:35:48.682Z,4.29
2019-02-05T22:38:15.236Z,4.18
2019-02-05T22:40:41.676Z,4.12
2019-02-05T22:43:08.481Z,4.24
2019-02-05T22:45:35.024Z,4.18
2019-02-05T22:48:01.518Z,4.36
2019-02-05T22:50:48.875Z,4.58
2019-02-05T22:53:14.982Z,4.35
2019-02-05T22:55:44.979Z,4.34
2019-02-05T22:58:11.643Z,4.28
2019-02-05T23:00:48.211Z,4.31
2019-02-05T23:03:15.917Z,4.32
2019-02-05T23:05:49.367Z,4.30
2019-02-05T23:08:15.814Z,4.29
2019-02-05T23:10:45.983Z,4.10
2019-02-05T23:13:12.569Z,4.15
2019-02-05T23:15:39.272Z,4.15
2019-02-05T23:18:06.241Z,4.14
2019-02-05T23:20:32.836Z,3.99
2019-02-05T23:22:59.917Z,3.90
2019-02-05T23:25:26.385Z,4.07
2019-02-05T23:27:53.032Z,4.07
2019-02-05T23:30:20.785Z,4.16
2019-02-05T23:32:47.082Z,4.01
2019-02-05T23:35:13.764Z,3.99
2019-02-05T23:37:40.677Z,4.05
2019-02-05T23:40:31.992Z,4.16
2019-02-05T23:42:58.360Z,4.13
2019-02-05T23:45:24.769Z,4.10
2019-02-05T23:47:51.182Z,4.04
2019-02-05T23:50:17.591Z,4.06
2019-02-05T23:52:44.681Z,4.05
2019-02-05T23:55:12.601Z,4.15
2019-02-05T23:57:39.187Z,4.06
